Saturday, February 24, 2018, 12:11 PM CST
Back to Local

KLOT, Chicago/romeoville, Lewis University Airport

Location: Lockport, IL, United States Lat: 41.608
Local Time: 12:11 PM CST (18:11 GMT) Lon: -88.094
Time Zone: US/Central Elev: 672 ft

Show me the last for .
Show Decoded

2018-02-24 11:35 METAR KLOT 241735Z AUTO 08012KT 10SM OVC015 04/01 A3003 RMK AO2 T00410013 =
2018-02-24 11:15 METAR KLOT 241715Z AUTO 08013KT 10SM OVC015 04/01 A3004 RMK AO2 T00400012 =
2018-02-24 10:55 METAR KLOT 241655Z AUTO 08011G16KT 10SM OVC015 04/01 A3007 RMK AO2 T00390011 =
2018-02-24 10:35 METAR KLOT 241635Z AUTO 08010KT 10SM OVC015 03/01 A3009 RMK AO2 T00320005 =
2018-02-24 10:15 METAR KLOT 241615Z AUTO 09010KT 10SM BKN015 OVC070 03/00 A3011 RMK AO2 T00300002
                 =
2018-02-24 09:55 METAR KLOT 241555Z AUTO 09012KT 10SM SCT017 OVC070 03/00 A3011 RMK AO2 T00260000
                 =
2018-02-24 09:35 METAR KLOT 241535Z AUTO 09014KT 10SM SCT017 BKN070 OVC080 03/00 A3012 RMK AO2
                 T00260000 =
2018-02-24 09:15 METAR KLOT 241515Z AUTO 08010KT 10SM SCT065 OVC080 02/00 A3013 RMK AO2 T00221004
                 =
2018-02-24 08:55 METAR KLOT 241455Z AUTO 09013KT 10SM BKN085 BKN090 OVC110 02/M01 A3014 RMK AO2
                 T00171008 =
2018-02-24 08:35 METAR KLOT 241435Z AUTO 08013KT 10SM BKN085 BKN110 02/M01 A3015 RMK AO2
                 T00151010 =
2018-02-24 08:15 METAR KLOT 241415Z AUTO 08009KT 10SM OVC085 01/M01 A3016 RMK AO2 T00121011 =
2018-02-24 07:55 METAR KLOT 241355Z AUTO 08011G16KT 10SM OVC085 01/M01 A3015 RMK AO2 T00101013 =
2018-02-24 07:35 METAR KLOT 241335Z AUTO 08011KT 10SM OVC095 01/M01 A3015 RMK AO2 T00081012 =
2018-02-24 07:15 METAR KLOT 241315Z AUTO 08014KT 10SM SCT014 OVC095 01/M01 A3015 RMK AO2
                 T00081010 =
2018-02-24 06:55 METAR KLOT 241255Z AUTO 08014KT 10SM OVC014 01/M01 A3015 RMK AO2 T00081006 =
2018-02-24 06:35 METAR KLOT 241235Z AUTO 08013G22KT 10SM OVC012 01/00 A3015 RMK AO2 T00101003 =
2018-02-24 06:15 METAR KLOT 241215Z AUTO 07016KT 10SM OVC012 01/00 A3015 RMK AO2 T00101001 =
2018-02-24 05:55 METAR KLOT 241155Z AUTO 07011KT 10SM OVC012 01/00 A3016 RMK AO2 T00101001 10011
                 20000 =
2018-02-24 05:35 METAR KLOT 241135Z AUTO 07014G17KT 7SM OVC012 01/00 A3016 RMK AO2 T00101001 =
2018-02-24 05:15 METAR KLOT 241115Z AUTO 07009KT 7SM BKN012 OVC021 01/00 A3017 RMK AO2 T00061004
                 =
2018-02-24 04:55 METAR KLOT 241055Z AUTO 07007KT 7SM SCT012 BKN021 OVC100 01/M01 A3018 RMK AO2
                 T00051006 =
2018-02-24 04:35 METAR KLOT 241035Z AUTO 06007KT 7SM SCT021 OVC100 00/M01 A3018 RMK AO2 T00031009
                 =
2018-02-24 04:15 METAR KLOT 241015Z AUTO 06008KT 7SM OVC100 00/M01 A3019 RMK AO2 T00021010 =
2018-02-24 03:55 METAR KLOT 240955Z AUTO 06008KT 7SM OVC100 00/M01 A3020 RMK AO2 T00011012 =
2018-02-24 03:35 METAR KLOT 240935Z AUTO 06008KT 10SM BKN100 00/M01 A3021 RMK AO2 T00001015 =
2018-02-24 03:15 METAR KLOT 240915Z AUTO 07008KT 10SM CLR 00/M01 A3021 RMK AO2 T00001015 =
2018-02-24 02:55 METAR KLOT 240855Z AUTO 06005KT 10SM CLR 00/M01 A3021 RMK AO2 T00001014 =
2018-02-24 02:35 METAR KLOT 240835Z AUTO 05003KT 10SM CLR 00/M01 A3024 RMK AO2 T00001015 =
2018-02-24 02:15 METAR KLOT 240815Z AUTO 05004KT 10SM CLR 00/M01 A3024 RMK AO2 T00021015 =
2018-02-24 01:55 METAR KLOT 240755Z AUTO 03005KT 10SM CLR 00/M01 A3023 RMK AO2 T00001014 =
2018-02-24 01:35 METAR KLOT 240735Z AUTO 05005KT 10SM CLR 00/M01 A3023 RMK AO2 T00011014 =
2018-02-24 01:15 METAR KLOT 240715Z AUTO 02007KT 10SM CLR 00/M01 A3022 RMK AO2 T00021013 =
2018-02-24 00:55 METAR KLOT 240655Z AUTO 01007KT 10SM CLR 00/M01 A3022 RMK AO2 T00011012 =
2018-02-24 00:35 METAR KLOT 240635Z AUTO 02009KT 10SM CLR 00/M01 A3022 RMK AO2 T00021012 =
2018-02-24 00:15 METAR KLOT 240615Z AUTO 36009KT 10SM CLR 00/M01 A3025 RMK AO2 T00021012 =
2018-02-23 23:55 METAR KLOT 240555Z AUTO 36006KT 10SM CLR 00/M01 A3026 RMK AO2 T00021010 10030
                 20000 400610000 =
2018-02-23 23:35 METAR KLOT 240535Z AUTO 36004KT 7SM CLR 00/M01 A3026 RMK AO2 T00011006 =
2018-02-23 23:15 METAR KLOT 240515Z AUTO 35004KT 7SM CLR 00/00 A3026 RMK AO2 T00001005 =
2018-02-23 22:55 METAR KLOT 240455Z AUTO 33004KT 7SM CLR 00/00 A3026 RMK AO2 T00021005 =
2018-02-23 22:35 METAR KLOT 240435Z AUTO 30005KT 7SM CLR 00/00 A3027 RMK AO2 T00031003 =
2018-02-23 22:15 METAR KLOT 240415Z AUTO 30005KT 10SM CLR 01/00 A3028 RMK AO2 T00061002 =
2018-02-23 21:55 METAR KLOT 240355Z AUTO 29006KT 10SM CLR 01/00 A3027 RMK AO2 T00071001 =
2018-02-23 21:35 METAR KLOT 240335Z AUTO 28005KT 10SM CLR 01/00 A3027 RMK AO2 T00101001 =
2018-02-23 21:10 METAR KLOT 240310Z AUTO 27004KT 10SM CLR 02/00 A3027 RMK AO2 T00150000 =
2018-02-23 20:55 METAR KLOT 240255Z AUTO 28004KT 10SM CLR 02/00 A3027 RMK AO2 T00150000 =
2018-02-23 20:35 METAR KLOT 240235Z AUTO 28005KT 10SM CLR 02/00 A3026 RMK AO2 T00180003 =
2018-02-23 20:15 METAR KLOT 240215Z AUTO 27004KT 10SM CLR 02/01 A3026 RMK AO2 T00200006 =
2018-02-23 19:55 METAR KLOT 240155Z AUTO 26004KT 10SM CLR 02/01 A3026 RMK AO2 T00200006 =
2018-02-23 19:35 METAR KLOT 240135Z AUTO 27004KT 10SM BKN018 03/01 A3026 RMK AO2 T00250009 =
2018-02-23 19:15 METAR KLOT 240115Z AUTO 26004KT 10SM OVC018 03/01 A3026 RMK AO2 T00280010 =
2018-02-23 18:55 METAR KLOT 240055Z AUTO 25003KT 10SM OVC018 03/01 A3026 RMK AO2 T00280008 =
2018-02-23 18:35 METAR KLOT 240035Z AUTO 27003KT 10SM OVC018 03/01 A3026 RMK AO2 T00290007 =
2018-02-23 18:15 METAR KLOT 240015Z AUTO 28004KT 10SM OVC016 03/01 A3026 RMK AO2 T00300007 =
2018-02-23 17:55 METAR KLOT 232355Z AUTO 28005KT 10SM OVC016 03/01 A3026 RMK AO2 T00300010 10038
                 20025 =
2018-02-23 17:35 METAR KLOT 232335Z AUTO 27006KT 10SM OVC016 03/01 A3025 RMK AO2 T00300007 =
2018-02-23 17:15 METAR KLOT 232315Z AUTO 28008KT 10SM OVC014 03/01 A3025 RMK AO2 T00300008 =
2018-02-23 16:55 METAR KLOT 232255Z AUTO 28008KT 10SM OVC014 03/01 A3024 RMK AO2 T00290009 =
2018-02-23 16:35 METAR KLOT 232235Z AUTO 28011KT 10SM OVC012 03/01 A3024 RMK AO2 T00280010 =
2018-02-23 16:15 METAR KLOT 232215Z AUTO 28009G12KT 10SM OVC010 03/01 A3023 RMK AO2 T00270010 =
2018-02-23 15:55 METAR KLOT 232155Z AUTO 28015KT 10SM BKN008 OVC012 03/01 A3023 RMK AO2 T00260012
                 =
2018-02-23 15:35 METAR KLOT 232135Z AUTO 28010G16KT 10SM OVC008 03/02 A3023 RMK AO2 T00250015 =
2018-02-23 15:15 METAR KLOT 232115Z AUTO 27010KT 10SM OVC008 03/02 A3023 RMK AO2 T00260016 =
2018-02-23 14:55 METAR KLOT 232055Z AUTO 27014KT 10SM OVC008 03/02 A3023 RMK AO2 T00270015 =
2018-02-23 14:35 METAR KLOT 232035Z AUTO 27012G19KT 10SM OVC008 03/02 A3022 RMK AO2 T00300017 =
2018-02-23 14:15 METAR KLOT 232015Z AUTO 28013KT 10SM OVC008 03/02 A3022 RMK AO2 T00310018 =
2018-02-23 13:55 METAR KLOT 231955Z AUTO 27010KT 10SM OVC008 03/02 A3021 RMK AO2 T00330020 =
2018-02-23 13:35 METAR KLOT 231935Z AUTO 27014G18KT 10SM OVC008 03/02 A3020 RMK AO2 T00340019 =
2018-02-23 13:15 METAR KLOT 231915Z AUTO 28014G17KT 10SM OVC008 04/02 A3021 RMK AO2 T00350021 =
2018-02-23 12:55 METAR KLOT 231855Z AUTO 27013KT 10SM OVC008 03/02 A3020 RMK AO2 T00320022 =
2018-02-23 12:35 METAR KLOT 231835Z AUTO 26012G18KT 10SM OVC008 04/02 A3019 RMK AO2 T00350024 =
2018-02-23 12:15 METAR KLOT 231815Z AUTO 27017G21KT 10SM OVC008 04/02 A3019 RMK AO2 T00370024 =

Support USWX by starting your Amazon purchase here.